sensor_id;sensor_type;location;lat;lon;timestamp;P1;durP1;ratioP1;P2;durP2;ratioP2
21621;SDS011;10973;46.706;12.340;2023-12-28T00:02:24;8.90;;;3.50;;
21621;SDS011;10973;46.706;12.340;2023-12-28T00:04:51;4.03;;;3.10;;
21621;SDS011;10973;46.706;12.340;2023-12-28T00:07:19;4.33;;;3.00;;
21621;SDS011;10973;46.706;12.340;2023-12-28T00:09:46;4.10;;;2.83;;
21621;SDS011;10973;46.706;12.340;2023-12-28T00:12:14;6.17;;;3.53;;
21621;SDS011;10973;46.706;12.340;2023-12-28T00:14:42;4.83;;;3.50;;
21621;SDS011;10973;46.706;12.340;2023-12-28T00:17:09;5.13;;;3.53;;
21621;SDS011;10973;46.706;12.340;2023-12-28T00:19:37;6.57;;;3.63;;
21621;SDS011;10973;46.706;12.340;2023-12-28T00:22:04;7.07;;;3.27;;
21621;SDS011;10973;46.706;12.340;2023-12-28T00:24:32;6.23;;;3.30;;
21621;SDS011;10973;46.706;12.340;2023-12-28T00:27:00;5.90;;;3.30;;
21621;SDS011;10973;46.706;12.340;2023-12-28T00:29:27;4.90;;;3.10;;
21621;SDS011;10973;46.706;12.340;2023-12-28T00:31:54;4.63;;;3.00;;
21621;SDS011;10973;46.706;12.340;2023-12-28T00:34:22;4.80;;;3.13;;
21621;SDS011;10973;46.706;12.340;2023-12-28T00:36:50;5.50;;;3.13;;
21621;SDS011;10973;46.706;12.340;2023-12-28T00:39:17;4.03;;;2.90;;
21621;SDS011;10973;46.706;12.340;2023-12-28T00:41:45;3.33;;;2.50;;
21621;SDS011;10973;46.706;12.340;2023-12-28T00:44:12;3.43;;;3.00;;
21621;SDS011;10973;46.706;12.340;2023-12-28T00:46:40;3.00;;;2.67;;
21621;SDS011;10973;46.706;12.340;2023-12-28T00:49:07;4.70;;;2.90;;
21621;SDS011;10973;46.706;12.340;2023-12-28T00:51:35;7.33;;;2.63;;
21621;SDS011;10973;46.706;12.340;2023-12-28T00:54:03;6.87;;;3.50;;
21621;SDS011;10973;46.706;12.340;2023-12-28T00:56:30;6.50;;;4.73;;
21621;SDS011;10973;46.706;12.340;2023-12-28T00:58:58;5.27;;;3.93;;
21621;SDS011;10973;46.706;12.340;2023-12-28T01:01:25;4.67;;;3.00;;
21621;SDS011;10973;46.706;12.340;2023-12-28T01:03:53;4.07;;;2.93;;
21621;SDS011;10973;46.706;12.340;2023-12-28T01:06:20;2.40;;;2.20;;
21621;SDS011;10973;46.706;12.340;2023-12-28T01:08:48;3.50;;;2.47;;
21621;SDS011;10973;46.706;12.340;2023-12-28T01:11:15;4.50;;;2.93;;
21621;SDS011;10973;46.706;12.340;2023-12-28T01:13:43;3.33;;;2.50;;
21621;SDS011;10973;46.706;12.340;2023-12-28T01:16:12;2.73;;;2.33;;
21621;SDS011;10973;46.706;12.340;2023-12-28T01:18:40;5.03;;;2.63;;
21621;SDS011;10973;46.706;12.340;2023-12-28T01:21:08;6.23;;;2.80;;
21621;SDS011;10973;46.706;12.340;2023-12-28T01:23:35;4.73;;;2.63;;
21621;SDS011;10973;46.706;12.340;2023-12-28T01:26:03;2.77;;;2.43;;
21621;SDS011;10973;46.706;12.340;2023-12-28T01:28:31;6.10;;;2.73;;
21621;SDS011;10973;46.706;12.340;2023-12-28T01:30:58;2.93;;;2.60;;
21621;SDS011;10973;46.706;12.340;2023-12-28T01:33:26;3.13;;;2.57;;
21621;SDS011;10973;46.706;12.340;2023-12-28T01:35:53;4.20;;;2.67;;
21621;SDS011;10973;46.706;12.340;2023-12-28T01:38:21;5.47;;;2.50;;
21621;SDS011;10973;46.706;12.340;2023-12-28T01:40:48;5.60;;;2.70;;
21621;SDS011;10973;46.706;12.340;2023-12-28T01:43:15;6.60;;;2.93;;
21621;SDS011;10973;46.706;12.340;2023-12-28T01:45:43;6.40;;;2.63;;
21621;SDS011;10973;46.706;12.340;2023-12-28T01:48:12;5.97;;;3.23;;
21621;SDS011;10973;46.706;12.340;2023-12-28T01:50:41;3.87;;;3.30;;
21621;SDS011;10973;46.706;12.340;2023-12-28T01:53:09;6.23;;;3.20;;
21621;SDS011;10973;46.706;12.340;2023-12-28T01:55:38;5.80;;;3.70;;
21621;SDS011;10973;46.706;12.340;2023-12-28T01:58:05;4.53;;;3.07;;
21621;SDS011;10973;46.706;12.340;2023-12-28T02:00:33;6.07;;;3.13;;
21621;SDS011;10973;46.706;12.340;2023-12-28T02:03:00;4.93;;;3.40;;
21621;SDS011;10973;46.706;12.340;2023-12-28T02:05:28;6.60;;;3.00;;
21621;SDS011;10973;46.706;12.340;2023-12-28T02:07:56;5.50;;;2.90;;
21621;SDS011;10973;46.706;12.340;2023-12-28T02:10:28;2.73;;;2.47;;
21621;SDS011;10973;46.706;12.340;2023-12-28T02:12:56;3.73;;;3.13;;
21621;SDS011;10973;46.706;12.340;2023-12-28T02:15:23;5.63;;;2.60;;
21621;SDS011;10973;46.706;12.340;2023-12-28T02:17:55;5.80;;;2.80;;
21621;SDS011;10973;46.706;12.340;2023-12-28T02:20:32;4.87;;;3.00;;
21621;SDS011;10973;46.706;12.340;2023-12-28T02:23:01;4.17;;;2.40;;
21621;SDS011;10973;46.706;12.340;2023-12-28T02:25:29;4.00;;;2.67;;
21621;SDS011;10973;46.706;12.340;2023-12-28T02:27:57;6.03;;;2.80;;
21621;SDS011;10973;46.706;12.340;2023-12-28T02:30:25;7.70;;;3.17;;
21621;SDS011;10973;46.706;12.340;2023-12-28T02:35:44;4.63;;;2.63;;
21621;SDS011;10973;46.706;12.340;2023-12-28T02:38:22;3.30;;;3.00;;
21621;SDS011;10973;46.706;12.340;2023-12-28T02:40:54;7.33;;;3.10;;
21621;SDS011;10973;46.706;12.340;2023-12-28T02:43:23;5.03;;;3.00;;
21621;SDS011;10973;46.706;12.340;2023-12-28T02:45:50;6.90;;;3.40;;
21621;SDS011;10973;46.706;12.340;2023-12-28T02:48:18;8.27;;;3.53;;
21621;SDS011;10973;46.706;12.340;2023-12-28T02:50:46;4.67;;;3.10;;
21621;SDS011;10973;46.706;12.340;2023-12-28T02:53:13;6.40;;;3.47;;
21621;SDS011;10973;46.706;12.340;2023-12-28T02:55:41;3.00;;;2.80;;
21621;SDS011;10973;46.706;12.340;2023-12-28T02:58:08;2.97;;;2.77;;
21621;SDS011;10973;46.706;12.340;2023-12-28T03:00:36;4.17;;;2.60;;
21621;SDS011;10973;46.706;12.340;2023-12-28T03:03:04;4.30;;;3.07;;
21621;SDS011;10973;46.706;12.340;2023-12-28T03:05:31;3.97;;;2.67;;
21621;SDS011;10973;46.706;12.340;2023-12-28T03:07:59;3.07;;;2.77;;
21621;SDS011;10973;46.706;12.340;2023-12-28T03:10:27;4.00;;;3.00;;
21621;SDS011;10973;46.706;12.340;2023-12-28T03:12:54;5.77;;;2.87;;
21621;SDS011;10973;46.706;12.340;2023-12-28T03:15:22;4.37;;;2.77;;
21621;SDS011;10973;46.706;12.340;2023-12-28T03:17:50;5.53;;;2.60;;
21621;SDS011;10973;46.706;12.340;2023-12-28T03:20:17;2.70;;;2.50;;
21621;SDS011;10973;46.706;12.340;2023-12-28T03:22:45;3.57;;;2.77;;
21621;SDS011;10973;46.706;12.340;2023-12-28T03:25:13;4.47;;;2.63;;
21621;SDS011;10973;46.706;12.340;2023-12-28T03:27:41;2.50;;;2.30;;
21621;SDS011;10973;46.706;12.340;2023-12-28T03:30:09;3.33;;;2.40;;
21621;SDS011;10973;46.706;12.340;2023-12-28T03:32:37;2.40;;;2.20;;
21621;SDS011;10973;46.706;12.340;2023-12-28T03:35:05;4.33;;;2.20;;
21621;SDS011;10973;46.706;12.340;2023-12-28T03:37:34;3.53;;;2.37;;
21621;SDS011;10973;46.706;12.340;2023-12-28T03:40:01;3.03;;;2.30;;
21621;SDS011;10973;46.706;12.340;2023-12-28T03:42:29;2.13;;;2.00;;
21621;SDS011;10973;46.706;12.340;2023-12-28T03:44:57;5.00;;;2.07;;
21621;SDS011;10973;46.706;12.340;2023-12-28T03:47:24;1.93;;;1.83;;
21621;SDS011;10973;46.706;12.340;2023-12-28T03:49:52;3.13;;;2.83;;
21621;SDS011;10973;46.706;12.340;2023-12-28T03:52:20;4.87;;;2.33;;
21621;SDS011;10973;46.706;12.340;2023-12-28T03:54:47;2.43;;;2.10;;
21621;SDS011;10973;46.706;12.340;2023-12-28T03:57:15;2.03;;;1.80;;
21621;SDS011;10973;46.706;12.340;2023-12-28T03:59:42;2.33;;;2.13;;
21621;SDS011;10973;46.706;12.340;2023-12-28T04:02:09;5.33;;;2.23;;
21621;SDS011;10973;46.706;12.340;2023-12-28T04:04:37;2.10;;;1.90;;
21621;SDS011;10973;46.706;12.340;2023-12-28T04:07:04;3.73;;;2.33;;
21621;SDS011;10973;46.706;12.340;2023-12-28T04:09:32;2.83;;;2.23;;
21621;SDS011;10973;46.706;12.340;2023-12-28T04:12:00;3.87;;;2.57;;
21621;SDS011;10973;46.706;12.340;2023-12-28T04:14:28;2.10;;;1.90;;
21621;SDS011;10973;46.706;12.340;2023-12-28T04:16:55;2.70;;;2.03;;
21621;SDS011;10973;46.706;12.340;2023-12-28T04:19:23;2.17;;;1.97;;
21621;SDS011;10973;46.706;12.340;2023-12-28T04:21:50;2.93;;;2.50;;
21621;SDS011;10973;46.706;12.340;2023-12-28T04:24:18;6.83;;;3.20;;
21621;SDS011;10973;46.706;12.340;2023-12-28T04:26:46;4.50;;;3.17;;
21621;SDS011;10973;46.706;12.340;2023-12-28T04:29:13;2.97;;;2.77;;
21621;SDS011;10973;46.706;12.340;2023-12-28T04:31:41;4.40;;;3.60;;
21621;SDS011;10973;46.706;12.340;2023-12-28T04:34:09;9.30;;;6.13;;
21621;SDS011;10973;46.706;12.340;2023-12-28T04:36:42;5.70;;;4.47;;
21621;SDS011;10973;46.706;12.340;2023-12-28T04:39:10;4.77;;;4.23;;
21621;SDS011;10973;46.706;12.340;2023-12-28T04:41:39;5.87;;;3.20;;
21621;SDS011;10973;46.706;12.340;2023-12-28T04:44:06;5.23;;;3.27;;
21621;SDS011;10973;46.706;12.340;2023-12-28T04:46:37;4.43;;;3.20;;
21621;SDS011;10973;46.706;12.340;2023-12-28T04:49:05;6.90;;;3.53;;
21621;SDS011;10973;46.706;12.340;2023-12-28T04:51:32;3.77;;;3.33;;
21621;SDS011;10973;46.706;12.340;2023-12-28T04:54:00;6.97;;;3.13;;
21621;SDS011;10973;46.706;12.340;2023-12-28T04:56:28;4.23;;;3.23;;
21621;SDS011;10973;46.706;12.340;2023-12-28T04:58:55;6.73;;;3.63;;
21621;SDS011;10973;46.706;12.340;2023-12-28T05:01:22;3.50;;;3.20;;
21621;SDS011;10973;46.706;12.340;2023-12-28T05:03:50;3.90;;;3.50;;
21621;SDS011;10973;46.706;12.340;2023-12-28T05:06:17;6.13;;;3.97;;
21621;SDS011;10973;46.706;12.340;2023-12-28T05:08:45;6.57;;;4.50;;
21621;SDS011;10973;46.706;12.340;2023-12-28T05:11:12;16.63;;;10.23;;
21621;SDS011;10973;46.706;12.340;2023-12-28T05:13:42;11.43;;;6.90;;
21621;SDS011;10973;46.706;12.340;2023-12-28T05:16:09;13.80;;;7.17;;
21621;SDS011;10973;46.706;12.340;2023-12-28T05:18:37;15.00;;;7.43;;
21621;SDS011;10973;46.706;12.340;2023-12-28T05:21:04;9.37;;;7.30;;
21621;SDS011;10973;46.706;12.340;2023-12-28T05:23:32;9.67;;;7.53;;
21621;SDS011;10973;46.706;12.340;2023-12-28T05:25:59;11.50;;;6.80;;
21621;SDS011;10973;46.706;12.340;2023-12-28T05:28:27;10.67;;;6.03;;
21621;SDS011;10973;46.706;12.340;2023-12-28T05:30:54;8.83;;;5.90;;
21621;SDS011;10973;46.706;12.340;2023-12-28T05:33:22;9.07;;;6.13;;
21621;SDS011;10973;46.706;12.340;2023-12-28T05:35:50;9.03;;;5.80;;
21621;SDS011;10973;46.706;12.340;2023-12-28T05:38:17;11.20;;;6.30;;
21621;SDS011;10973;46.706;12.340;2023-12-28T05:40:45;8.40;;;5.80;;
21621;SDS011;10973;46.706;12.340;2023-12-28T05:43:12;9.87;;;6.00;;
21621;SDS011;10973;46.706;12.340;2023-12-28T05:45:40;8.43;;;5.67;;
21621;SDS011;10973;46.706;12.340;2023-12-28T05:48:08;6.80;;;5.60;;
21621;SDS011;10973;46.706;12.340;2023-12-28T05:50:36;7.13;;;5.20;;
21621;SDS011;10973;46.706;12.340;2023-12-28T05:53:04;8.30;;;5.50;;
21621;SDS011;10973;46.706;12.340;2023-12-28T05:55:31;13.30;;;8.10;;
21621;SDS011;10973;46.706;12.340;2023-12-28T05:57:59;14.90;;;11.47;;
21621;SDS011;10973;46.706;12.340;2023-12-28T06:00:27;17.37;;;10.07;;
21621;SDS011;10973;46.706;12.340;2023-12-28T06:02:54;46.60;;;20.87;;
21621;SDS011;10973;46.706;12.340;2023-12-28T06:05:22;50.10;;;23.67;;
21621;SDS011;10973;46.706;12.340;2023-12-28T06:07:49;44.40;;;22.87;;
21621;SDS011;10973;46.706;12.340;2023-12-28T06:10:17;34.97;;;18.53;;
21621;SDS011;10973;46.706;12.340;2023-12-28T06:12:44;29.70;;;16.20;;
21621;SDS011;10973;46.706;12.340;2023-12-28T06:15:12;32.60;;;20.33;;
21621;SDS011;10973;46.706;12.340;2023-12-28T06:17:40;26.57;;;17.90;;
21621;SDS011;10973;46.706;12.340;2023-12-28T06:20:08;21.63;;;14.43;;
21621;SDS011;10973;46.706;12.340;2023-12-28T06:22:37;19.43;;;12.00;;
21621;SDS011;10973;46.706;12.340;2023-12-28T06:25:05;13.90;;;11.17;;
21621;SDS011;10973;46.706;12.340;2023-12-28T06:27:36;15.83;;;10.73;;
21621;SDS011;10973;46.706;12.340;2023-12-28T06:30:05;14.70;;;10.30;;
21621;SDS011;10973;46.706;12.340;2023-12-28T06:32:41;31.57;;;15.50;;
21621;SDS011;10973;46.706;12.340;2023-12-28T06:35:12;23.50;;;13.03;;
21621;SDS011;10973;46.706;12.340;2023-12-28T06:37:41;18.20;;;11.37;;
21621;SDS011;10973;46.706;12.340;2023-12-28T06:40:09;18.80;;;12.77;;
21621;SDS011;10973;46.706;12.340;2023-12-28T06:42:37;17.00;;;10.80;;
21621;SDS011;10973;46.706;12.340;2023-12-28T06:45:04;22.53;;;11.83;;
21621;SDS011;10973;46.706;12.340;2023-12-28T06:47:34;16.43;;;11.20;;
21621;SDS011;10973;46.706;12.340;2023-12-28T06:50:01;14.33;;;9.87;;
21621;SDS011;10973;46.706;12.340;2023-12-28T06:52:30;15.07;;;10.00;;
21621;SDS011;10973;46.706;12.340;2023-12-28T06:54:57;15.03;;;10.27;;
21621;SDS011;10973;46.706;12.340;2023-12-28T06:57:25;18.80;;;11.47;;
21621;SDS011;10973;46.706;12.340;2023-12-28T06:59:53;15.80;;;10.30;;
21621;SDS011;10973;46.706;12.340;2023-12-28T07:02:21;17.27;;;10.57;;
21621;SDS011;10973;46.706;12.340;2023-12-28T07:04:49;19.70;;;11.23;;
21621;SDS011;10973;46.706;12.340;2023-12-28T07:07:16;15.40;;;11.33;;
21621;SDS011;10973;46.706;12.340;2023-12-28T07:09:44;25.57;;;13.67;;
21621;SDS011;10973;46.706;12.340;2023-12-28T07:12:12;19.70;;;14.33;;
21621;SDS011;10973;46.706;12.340;2023-12-28T07:14:40;23.77;;;15.43;;
21621;SDS011;10973;46.706;12.340;2023-12-28T07:17:07;28.40;;;17.70;;
21621;SDS011;10973;46.706;12.340;2023-12-28T07:19:35;37.87;;;22.00;;
21621;SDS011;10973;46.706;12.340;2023-12-28T07:22:03;37.73;;;22.17;;
21621;SDS011;10973;46.706;12.340;2023-12-28T07:24:30;36.53;;;22.87;;
21621;SDS011;10973;46.706;12.340;2023-12-28T07:26:58;34.80;;;20.33;;
21621;SDS011;10973;46.706;12.340;2023-12-28T07:29:25;28.30;;;17.83;;
21621;SDS011;10973;46.706;12.340;2023-12-28T07:31:53;32.03;;;22.50;;
21621;SDS011;10973;46.706;12.340;2023-12-28T07:34:21;36.43;;;21.53;;
21621;SDS011;10973;46.706;12.340;2023-12-28T07:36:49;31.60;;;20.10;;
21621;SDS011;10973;46.706;12.340;2023-12-28T07:39:16;23.37;;;14.57;;
21621;SDS011;10973;46.706;12.340;2023-12-28T07:41:44;27.80;;;16.93;;
21621;SDS011;10973;46.706;12.340;2023-12-28T07:44:11;41.30;;;21.80;;
21621;SDS011;10973;46.706;12.340;2023-12-28T07:46:39;41.97;;;24.50;;
21621;SDS011;10973;46.706;12.340;2023-12-28T07:49:06;33.93;;;19.70;;
21621;SDS011;10973;46.706;12.340;2023-12-28T07:51:34;29.93;;;18.60;;
21621;SDS011;10973;46.706;12.340;2023-12-28T07:54:02;24.93;;;14.43;;
21621;SDS011;10973;46.706;12.340;2023-12-28T07:56:29;20.10;;;11.30;;
21621;SDS011;10973;46.706;12.340;2023-12-28T07:58:57;23.33;;;11.93;;
21621;SDS011;10973;46.706;12.340;2023-12-28T08:01:25;18.30;;;11.27;;
21621;SDS011;10973;46.706;12.340;2023-12-28T08:03:53;15.47;;;11.83;;
21621;SDS011;10973;46.706;12.340;2023-12-28T08:06:21;19.43;;;11.67;;
21621;SDS011;10973;46.706;12.340;2023-12-28T08:08:48;24.20;;;13.23;;
21621;SDS011;10973;46.706;12.340;2023-12-28T08:11:17;21.50;;;12.63;;
21621;SDS011;10973;46.706;12.340;2023-12-28T08:14:05;17.37;;;11.77;;
21621;SDS011;10973;46.706;12.340;2023-12-28T08:16:38;18.43;;;11.87;;
21621;SDS011;10973;46.706;12.340;2023-12-28T08:19:05;16.87;;;11.07;;
21621;SDS011;10973;46.706;12.340;2023-12-28T08:21:33;16.47;;;9.30;;
21621;SDS011;10973;46.706;12.340;2023-12-28T08:24:01;13.83;;;9.87;;
21621;SDS011;10973;46.706;12.340;2023-12-28T08:26:30;16.43;;;8.77;;
21621;SDS011;10973;46.706;12.340;2023-12-28T08:28:57;14.53;;;9.70;;
21621;SDS011;10973;46.706;12.340;2023-12-28T08:31:25;12.30;;;8.30;;
21621;SDS011;10973;46.706;12.340;2023-12-28T08:33:53;10.83;;;6.53;;
21621;SDS011;10973;46.706;12.340;2023-12-28T08:36:23;10.20;;;6.10;;
21621;SDS011;10973;46.706;12.340;2023-12-28T08:38:51;10.63;;;7.17;;
21621;SDS011;10973;46.706;12.340;2023-12-28T08:41:22;9.63;;;6.60;;
21621;SDS011;10973;46.706;12.340;2023-12-28T08:43:50;12.03;;;6.43;;
21621;SDS011;10973;46.706;12.340;2023-12-28T08:46:18;7.80;;;6.10;;
21621;SDS011;10973;46.706;12.340;2023-12-28T08:48:45;10.27;;;7.57;;
21621;SDS011;10973;46.706;12.340;2023-12-28T08:51:13;11.37;;;7.33;;
21621;SDS011;10973;46.706;12.340;2023-12-28T08:53:41;7.93;;;5.70;;
21621;SDS011;10973;46.706;12.340;2023-12-28T08:56:19;6.33;;;5.57;;
21621;SDS011;10973;46.706;12.340;2023-12-28T08:58:48;7.57;;;4.67;;
21621;SDS011;10973;46.706;12.340;2023-12-28T09:01:17;5.67;;;4.20;;
21621;SDS011;10973;46.706;12.340;2023-12-28T09:03:49;5.97;;;4.37;;
21621;SDS011;10973;46.706;12.340;2023-12-28T09:06:18;5.47;;;4.60;;
21621;SDS011;10973;46.706;12.340;2023-12-28T09:08:50;6.20;;;5.57;;
21621;SDS011;10973;46.706;12.340;2023-12-28T09:11:19;10.00;;;5.73;;
21621;SDS011;10973;46.706;12.340;2023-12-28T09:13:47;9.27;;;5.90;;
21621;SDS011;10973;46.706;12.340;2023-12-28T09:16:15;8.37;;;5.43;;
21621;SDS011;10973;46.706;12.340;2023-12-28T09:18:43;7.57;;;4.30;;
21621;SDS011;10973;46.706;12.340;2023-12-28T09:21:11;5.07;;;4.27;;
21621;SDS011;10973;46.706;12.340;2023-12-28T09:23:38;6.00;;;4.93;;
21621;SDS011;10973;46.706;12.340;2023-12-28T09:26:06;5.73;;;5.00;;
21621;SDS011;10973;46.706;12.340;2023-12-28T09:28:34;5.97;;;4.67;;
21621;SDS011;10973;46.706;12.340;2023-12-28T09:31:02;5.40;;;4.07;;
21621;SDS011;10973;46.706;12.340;2023-12-28T09:33:31;4.10;;;3.70;;
21621;SDS011;10973;46.706;12.340;2023-12-28T09:35:59;6.50;;;4.63;;
21621;SDS011;10973;46.706;12.340;2023-12-28T09:38:26;6.63;;;4.03;;
21621;SDS011;10973;46.706;12.340;2023-12-28T09:40:54;5.10;;;4.57;;
21621;SDS011;10973;46.706;12.340;2023-12-28T09:43:37;8.53;;;4.40;;
21621;SDS011;10973;46.706;12.340;2023-12-28T09:46:12;6.00;;;4.47;;
21621;SDS011;10973;46.706;12.340;2023-12-28T09:48:40;3.70;;;3.37;;
21621;SDS011;10973;46.706;12.340;2023-12-28T09:51:09;3.93;;;3.43;;
21621;SDS011;10973;46.706;12.340;2023-12-28T09:53:40;5.13;;;2.87;;
21621;SDS011;10973;46.706;12.340;2023-12-28T09:56:09;2.90;;;2.70;;
21621;SDS011;10973;46.706;12.340;2023-12-28T09:58:40;5.77;;;3.80;;
21621;SDS011;10973;46.706;12.340;2023-12-28T10:01:10;11.47;;;7.43;;
21621;SDS011;10973;46.706;12.340;2023-12-28T10:03:41;3.50;;;3.20;;
21621;SDS011;10973;46.706;12.340;2023-12-28T10:06:09;3.40;;;2.87;;
21621;SDS011;10973;46.706;12.340;2023-12-28T10:08:44;3.87;;;2.90;;
21621;SDS011;10973;46.706;12.340;2023-12-28T10:11:14;3.20;;;2.87;;
21621;SDS011;10973;46.706;12.340;2023-12-28T10:13:44;6.53;;;4.97;;
21621;SDS011;10973;46.706;12.340;2023-12-28T10:16:12;4.37;;;3.10;;
21621;SDS011;10973;46.706;12.340;2023-12-28T10:18:40;2.50;;;2.30;;
21621;SDS011;10973;46.706;12.340;2023-12-28T10:21:14;2.20;;;1.73;;
21621;SDS011;10973;46.706;12.340;2023-12-28T10:23:42;2.30;;;2.07;;
21621;SDS011;10973;46.706;12.340;2023-12-28T10:26:09;1.93;;;1.83;;
21621;SDS011;10973;46.706;12.340;2023-12-28T10:28:37;3.37;;;2.40;;
21621;SDS011;10973;46.706;12.340;2023-12-28T10:31:05;3.07;;;2.10;;
21621;SDS011;10973;46.706;12.340;2023-12-28T10:33:36;2.27;;;2.17;;
21621;SDS011;10973;46.706;12.340;2023-12-28T10:36:06;2.43;;;2.30;;
21621;SDS011;10973;46.706;12.340;2023-12-28T10:38:36;2.60;;;2.13;;
21621;SDS011;10973;46.706;12.340;2023-12-28T10:41:06;2.27;;;2.10;;
21621;SDS011;10973;46.706;12.340;2023-12-28T10:43:38;2.43;;;2.23;;
21621;SDS011;10973;46.706;12.340;2023-12-28T10:46:17;2.60;;;2.10;;
21621;SDS011;10973;46.706;12.340;2023-12-28T10:48:57;2.33;;;2.00;;
21621;SDS011;10973;46.706;12.340;2023-12-28T10:51:52;2.30;;;2.10;;
21621;SDS011;10973;46.706;12.340;2023-12-28T11:00:02;1.87;;;1.77;;
21621;SDS011;10973;46.706;12.340;2023-12-28T11:02:52;1.80;;;1.70;;
21621;SDS011;10973;46.706;12.340;2023-12-28T11:05:24;2.00;;;1.77;;
21621;SDS011;10973;46.706;12.340;2023-12-28T11:07:53;5.00;;;2.23;;
21621;SDS011;10973;46.706;12.340;2023-12-28T11:10:24;1.87;;;1.77;;
21621;SDS011;10973;46.706;12.340;2023-12-28T11:12:53;1.73;;;1.63;;
21621;SDS011;10973;46.706;12.340;2023-12-28T11:15:23;3.20;;;1.87;;
21621;SDS011;10973;46.706;12.340;2023-12-28T11:17:54;2.93;;;2.60;;
21621;SDS011;10973;46.706;12.340;2023-12-28T11:20:22;5.47;;;3.67;;
21621;SDS011;10973;46.706;12.340;2023-12-28T11:22:50;26.97;;;15.30;;
21621;SDS011;10973;46.706;12.340;2023-12-28T11:25:18;34.07;;;19.03;;
21621;SDS011;10973;46.706;12.340;2023-12-28T11:27:46;4.40;;;3.57;;
21621;SDS011;10973;46.706;12.340;2023-12-28T11:30:14;8.60;;;5.43;;
21621;SDS011;10973;46.706;12.340;2023-12-28T11:32:42;14.73;;;9.17;;
21621;SDS011;10973;46.706;12.340;2023-12-28T11:35:11;3.70;;;3.00;;
21621;SDS011;10973;46.706;12.340;2023-12-28T11:37:40;4.77;;;4.13;;
21621;SDS011;10973;46.706;12.340;2023-12-28T11:40:13;3.00;;;2.80;;
21621;SDS011;10973;46.706;12.340;2023-12-28T11:42:51;2.97;;;2.87;;
21621;SDS011;10973;46.706;12.340;2023-12-28T11:45:24;2.47;;;2.27;;
21621;SDS011;10973;46.706;12.340;2023-12-28T11:47:58;4.03;;;3.63;;
21621;SDS011;10973;46.706;12.340;2023-12-28T11:50:31;3.03;;;1.97;;
21621;SDS011;10973;46.706;12.340;2023-12-28T11:52:59;24.70;;;20.50;;
21621;SDS011;10973;46.706;12.340;2023-12-28T11:55:27;3.60;;;3.30;;
21621;SDS011;10973;46.706;12.340;2023-12-28T11:57:54;3.10;;;2.90;;
21621;SDS011;10973;46.706;12.340;2023-12-28T12:00:23;4.87;;;2.37;;
21621;SDS011;10973;46.706;12.340;2023-12-28T12:02:50;7.70;;;2.70;;
21621;SDS011;10973;46.706;12.340;2023-12-28T12:05:18;6.97;;;4.23;;
21621;SDS011;10973;46.706;12.340;2023-12-28T12:07:48;4.20;;;1.77;;
21621;SDS011;10973;46.706;12.340;2023-12-28T12:10:16;76.17;;;48.73;;
21621;SDS011;10973;46.706;12.340;2023-12-28T12:12:43;19.37;;;14.73;;
21621;SDS011;10973;46.706;12.340;2023-12-28T12:15:11;8.87;;;5.43;;
21621;SDS011;10973;46.706;12.340;2023-12-28T12:17:39;4.53;;;4.13;;
21621;SDS011;10973;46.706;12.340;2023-12-28T12:20:07;3.60;;;3.23;;
21621;SDS011;10973;46.706;12.340;2023-12-28T12:22:36;3.57;;;3.27;;
21621;SDS011;10973;46.706;12.340;2023-12-28T12:25:03;3.07;;;2.77;;
21621;SDS011;10973;46.706;12.340;2023-12-28T12:27:34;9.53;;;6.23;;
21621;SDS011;10973;46.706;12.340;2023-12-28T12:30:03;8.87;;;5.60;;
21621;SDS011;10973;46.706;12.340;2023-12-28T12:32:32;57.33;;;23.40;;
21621;SDS011;10973;46.706;12.340;2023-12-28T12:35:00;39.00;;;16.47;;
21621;SDS011;10973;46.706;12.340;2023-12-28T12:37:28;12.53;;;6.03;;
21621;SDS011;10973;46.706;12.340;2023-12-28T12:39:56;8.20;;;4.10;;
21621;SDS011;10973;46.706;12.340;2023-12-28T12:42:24;5.87;;;4.10;;
21621;SDS011;10973;46.706;12.340;2023-12-28T12:44:51;6.87;;;5.10;;
21621;SDS011;10973;46.706;12.340;2023-12-28T12:47:19;6.27;;;5.40;;
21621;SDS011;10973;46.706;12.340;2023-12-28T12:49:46;7.37;;;6.57;;
21621;SDS011;10973;46.706;12.340;2023-12-28T12:52:14;8.03;;;6.97;;
21621;SDS011;10973;46.706;12.340;2023-12-28T12:54:41;6.70;;;4.70;;
21621;SDS011;10973;46.706;12.340;2023-12-28T12:57:10;4.67;;;4.27;;
21621;SDS011;10973;46.706;12.340;2023-12-28T12:59:38;4.70;;;4.10;;
21621;SDS011;10973;46.706;12.340;2023-12-28T13:02:08;3.80;;;3.50;;
21621;SDS011;10973;46.706;12.340;2023-12-28T13:04:38;4.67;;;3.67;;
21621;SDS011;10973;46.706;12.340;2023-12-28T13:07:05;4.43;;;3.73;;
21621;SDS011;10973;46.706;12.340;2023-12-28T13:09:33;4.83;;;4.20;;
21621;SDS011;10973;46.706;12.340;2023-12-28T13:12:01;5.23;;;4.70;;
21621;SDS011;10973;46.706;12.340;2023-12-28T13:14:29;6.77;;;5.60;;
21621;SDS011;10973;46.706;12.340;2023-12-28T13:16:56;6.40;;;5.03;;
21621;SDS011;10973;46.706;12.340;2023-12-28T13:19:24;4.93;;;3.30;;
21621;SDS011;10973;46.706;12.340;2023-12-28T13:21:52;3.60;;;3.30;;
21621;SDS011;10973;46.706;12.340;2023-12-28T13:24:19;3.00;;;2.80;;
21621;SDS011;10973;46.706;12.340;2023-12-28T13:26:47;3.07;;;2.83;;
21621;SDS011;10973;46.706;12.340;2023-12-28T13:29:14;4.03;;;3.73;;
21621;SDS011;10973;46.706;12.340;2023-12-28T13:31:42;5.93;;;5.10;;
21621;SDS011;10973;46.706;12.340;2023-12-28T13:34:10;6.53;;;5.57;;
21621;SDS011;10973;46.706;12.340;2023-12-28T13:36:37;4.40;;;4.00;;
21621;SDS011;10973;46.706;12.340;2023-12-28T13:39:08;3.70;;;3.40;;
21621;SDS011;10973;46.706;12.340;2023-12-28T13:41:45;4.03;;;3.73;;
21621;SDS011;10973;46.706;12.340;2023-12-28T13:44:15;4.50;;;3.93;;
21621;SDS011;10973;46.706;12.340;2023-12-28T13:46:43;10.20;;;6.33;;
21621;SDS011;10973;46.706;12.340;2023-12-28T13:49:10;9.47;;;7.23;;
21621;SDS011;10973;46.706;12.340;2023-12-28T13:51:38;11.63;;;6.57;;
21621;SDS011;10973;46.706;12.340;2023-12-28T13:54:06;10.63;;;7.20;;
21621;SDS011;10973;46.706;12.340;2023-12-28T13:56:33;5.90;;;4.90;;
21621;SDS011;10973;46.706;12.340;2023-12-28T13:59:01;6.30;;;5.40;;
21621;SDS011;10973;46.706;12.340;2023-12-28T14:01:28;8.17;;;6.10;;
21621;SDS011;10973;46.706;12.340;2023-12-28T14:03:56;19.73;;;11.77;;
21621;SDS011;10973;46.706;12.340;2023-12-28T14:06:24;20.10;;;11.97;;
21621;SDS011;10973;46.706;12.340;2023-12-28T14:08:51;16.33;;;11.03;;
21621;SDS011;10973;46.706;12.340;2023-12-28T14:11:19;13.00;;;9.80;;
21621;SDS011;10973;46.706;12.340;2023-12-28T14:13:46;10.27;;;6.83;;
21621;SDS011;10973;46.706;12.340;2023-12-28T14:16:14;11.57;;;6.97;;
21621;SDS011;10973;46.706;12.340;2023-12-28T14:18:41;10.20;;;7.40;;
21621;SDS011;10973;46.706;12.340;2023-12-28T14:21:09;11.70;;;7.50;;
21621;SDS011;10973;46.706;12.340;2023-12-28T14:23:37;10.20;;;7.63;;
21621;SDS011;10973;46.706;12.340;2023-12-28T14:26:10;8.33;;;6.60;;
21621;SDS011;10973;46.706;12.340;2023-12-28T14:28:43;8.27;;;5.43;;
21621;SDS011;10973;46.706;12.340;2023-12-28T14:31:11;9.50;;;6.97;;
21621;SDS011;10973;46.706;12.340;2023-12-28T14:33:40;10.23;;;7.50;;
21621;SDS011;10973;46.706;12.340;2023-12-28T14:36:12;7.73;;;5.90;;
21621;SDS011;10973;46.706;12.340;2023-12-28T14:38:59;5.43;;;4.57;;
21621;SDS011;10973;46.706;12.340;2023-12-28T14:41:32;10.87;;;8.00;;
21621;SDS011;10973;46.706;12.340;2023-12-28T14:44:09;8.03;;;6.23;;
21621;SDS011;10973;46.706;12.340;2023-12-28T14:46:36;6.67;;;5.20;;